Time;durP1;ratioP1;P1;durP2;ratioP2;P2;SDS_P1;SDS_P2;PMS_P1;PMS_P2;Temp;Humidity;BMP_temperature;BMP_pressure;BME280_temperature;BME280_humidity;BME280_pressure;Samples;Min_cycle;Max_cycle;Signal;HPM_P1;HPM_P2
2023/01/11 00:30:39;;;;;;;;;;;22.30;72.50;;;;;;6301568;22;19938;-69
2023/01/11 00:33:05;;;;;;;;;;;22.30;72.90;;;;;;6304786;22;19911;-69
2023/01/11 00:35:32;;;;;;;;;;;22.30;72.70;;;;;;6300288;22;20273;-68
2023/01/11 00:37:59;;;;;;;;;;;22.30;71.90;;;;;;6305509;22;19907;-68
2023/01/11 00:40:26;;;;;;;;;;;22.30;72.30;;;;;;6306171;22;19938;-68
2023/01/11 00:48:22;;;;;;;;;;;22.30;72.00;;;;;;6306558;22;19998;-68
2023/01/11 00:50:49;;;;;;;;;;;22.30;71.60;;;;;;6306566;22;19903;-68
2023/01/11 00:53:17;;;;;;;;;;;22.40;71.70;;;;;;6278713;22;20322;-71
2023/01/11 00:55:44;;;;;;;;;;;22.40;72.10;;;;;;6306030;22;19934;-68
2023/01/11 00:58:11;;;;;;;;;;;22.40;71.50;;;;;;6306252;22;19911;-68
2023/01/11 01:00:37;;;;;;;;;;;22.40;72.50;;;;;;6306579;22;20791;-69
2023/01/11 01:03:04;;;;;;;;;;;22.40;71.20;;;;;;6306242;22;19907;-68
2023/01/11 01:05:32;;;;;;;;;;;22.40;70.60;;;;;;6303772;22;20306;-68
2023/01/11 01:07:58;;;;;;;;;;;22.40;70.60;;;;;;6305866;22;19903;-68
2023/01/11 01:10:25;;;;;;;;;;;22.40;70.50;;;;;;6306002;22;19903;-68
2023/01/11 01:15:36;;;;;;;;;;;22.40;70.40;;;;;;6306332;22;19932;-69
2023/01/11 01:18:03;;;;;;;;;;;22.40;71.30;;;;;;6306406;22;19914;-69
2023/01/11 01:20:30;;;;;;;;;;;22.50;71.50;;;;;;6306269;22;19911;-67
2023/01/11 01:22:57;;;;;;;;;;;22.50;71.70;;;;;;6306380;22;19990;-69
2023/01/11 01:25:23;;;;;;;;;;;22.50;70.60;;;;;;6306115;22;19907;-69
2023/01/11 01:27:50;;;;;;;;;;;22.50;71.00;;;;;;6306334;22;19949;-69
2023/01/11 01:35:37;;;;;;;;;;;22.50;70.60;;;;;;6302158;22;20349;-69
2023/01/11 01:38:04;;;;;;;;;;;22.50;70.60;;;;;;6305955;22;19918;-69
2023/01/11 01:40:30;;;;;;;;;;;22.60;70.80;;;;;;6306758;22;19914;-69
2023/01/11 01:42:57;;;;;;;;;;;22.60;70.70;;;;;;6306036;22;20215;-69
2023/01/11 01:45:24;;;;;;;;;;;22.50;70.10;;;;;;6305862;22;19909;-69
2023/01/11 01:47:58;;;;;;;;;;;22.60;70.30;;;;;;6306009;22;19957;-69
2023/01/11 01:50:45;;;;;;;;;;;22.60;70.20;;;;;;6278730;22;19903;-69
2023/01/11 01:53:13;;;;;;;;;;;22.60;70.80;;;;;;6305577;22;19910;-69
2023/01/11 01:55:40;;;;;;;;;;;22.60;70.30;;;;;;6305545;22;20233;-69
2023/01/11 01:58:09;;;;;;;;;;;22.70;70.30;;;;;;6305712;22;20375;-70
2023/01/11 02:00:45;;;;;;;;;;;22.80;70.90;;;;;;6278942;22;19947;-69
2023/01/11 02:03:15;;;;;;;;;;;22.80;70.70;;;;;;6305629;22;19992;-69
2023/01/11 02:05:42;;;;;;;;;;;22.80;70.40;;;;;;6304660;22;19903;-70
2023/01/11 02:08:10;;;;;;;;;;;22.80;69.50;;;;;;6306021;22;20322;-70
2023/01/11 02:10:37;;;;;;;;;;;22.80;70.00;;;;;;6277586;22;19939;-70
2023/01/11 02:13:11;;;;;;;;;;;22.90;70.40;;;;;;6305359;22;19903;-69
2023/01/11 02:15:37;;;;;;;;;;;22.90;70.50;;;;;;6279253;22;19953;-70
2023/01/11 02:18:04;;;;;;;;;;;23.00;69.70;;;;;;6306407;22;20033;-70
2023/01/11 02:20:34;;;;;;;;;;;23.00;69.60;;;;;;6280493;22;19903;-70
2023/01/11 02:23:19;;;;;;;;;;;23.10;69.60;;;;;;6280769;22;19903;-69
2023/01/11 02:25:52;;;;;;;;;;;23.10;69.00;;;;;;6307946;22;19929;-69
2023/01/11 02:28:34;;;;;;;;;;;23.10;69.20;;;;;;6280840;22;19907;-71
2023/01/11 02:31:07;;;;;;;;;;;23.10;69.30;;;;;;6308196;22;19909;-70
2023/01/11 02:33:40;;;;;;;;;;;23.20;69.40;;;;;;6307904;22;19907;-70
2023/01/11 02:36:09;;;;;;;;;;;23.20;69.10;;;;;;6305271;22;19914;-70
2023/01/11 02:38:41;;;;;;;;;;;23.30;67.60;;;;;;6307548;22;19915;-69
2023/01/11 02:41:26;;;;;;;;;;;23.30;68.30;;;;;;6280452;22;19903;-70
2023/01/11 02:46:45;;;;;;;;;;;23.30;68.60;;;;;;6284597;22;20173;-70
2023/01/11 02:49:13;;;;;;;;;;;23.30;69.30;;;;;;6307637;22;19921;-70
2023/01/11 02:51:46;;;;;;;;;;;23.30;67.50;;;;;;6280741;22;19934;-70
2023/01/11 02:54:15;;;;;;;;;;;23.30;67.90;;;;;;6280629;22;19937;-70
2023/01/11 02:56:43;;;;;;;;;;;23.40;68.60;;;;;;6280691;22;19926;-70
2023/01/11 02:59:10;;;;;;;;;;;23.40;66.70;;;;;;6280239;22;20043;-70
2023/01/11 03:01:44;;;;;;;;;;;23.40;67.90;;;;;;6280347;22;19903;-70
2023/01/11 03:04:28;;;;;;;;;;;23.40;68.20;;;;;;6305805;22;19922;-71
2023/01/11 03:07:13;;;;;;;;;;;23.50;67.70;;;;;;6307335;22;20215;-70
2023/01/11 03:09:39;;;;;;;;;;;23.60;68.10;;;;;;6307729;22;20470;-70
2023/01/11 03:15:16;;;;;;;;;;;23.70;68.00;;;;;;6307626;22;19949;-70
2023/01/11 03:17:43;;;;;;;;;;;23.80;66.30;;;;;;6280082;22;19952;-71
2023/01/11 03:20:10;;;;;;;;;;;23.80;67.20;;;;;;6306782;22;19914;-70
2023/01/11 03:22:36;;;;;;;;;;;23.80;66.60;;;;;;6307602;22;19903;-70
2023/01/11 03:25:20;;;;;;;;;;;23.80;66.90;;;;;;6307135;22;19918;-71
2023/01/11 03:27:52;;;;;;;;;;;23.80;66.10;;;;;;6307327;22;19902;-71
2023/01/11 03:30:37;;;;;;;;;;;23.90;66.20;;;;;;6306978;22;19903;-71
2023/01/11 03:33:15;;;;;;;;;;;23.90;67.10;;;;;;6307650;22;19957;-71
2023/01/11 03:35:46;;;;;;;;;;;24.00;65.80;;;;;;6304657;22;20272;-71
2023/01/11 03:38:20;;;;;;;;;;;24.10;66.80;;;;;;6278780;22;19918;-71
2023/01/11 03:40:52;;;;;;;;;;;24.00;66.90;;;;;;6305912;22;19910;-71
2023/01/11 03:43:19;;;;;;;;;;;24.00;65.80;;;;;;6304950;22;19910;-72
2023/01/11 03:45:56;;;;;;;;;;;24.10;66.80;;;;;;6278168;22;19914;-71
2023/01/11 03:48:25;;;;;;;;;;;24.10;66.30;;;;;;6305348;22;19907;-70
2023/01/11 03:50:51;;;;;;;;;;;24.10;66.30;;;;;;6278288;22;19903;-70
2023/01/11 03:53:19;;;;;;;;;;;24.10;65.70;;;;;;6304855;22;20238;-71
2023/01/11 03:55:46;;;;;;;;;;;24.00;65.80;;;;;;6304627;22;20293;-71
2023/01/11 03:58:13;;;;;;;;;;;24.10;66.20;;;;;;6277840;22;19911;-70
2023/01/11 04:00:39;;;;;;;;;;;24.10;66.30;;;;;;6277960;22;19903;-70
2023/01/11 04:03:08;;;;;;;;;;;24.20;67.50;;;;;;6277625;22;19910;-70
2023/01/11 04:05:35;;;;;;;;;;;24.10;66.00;;;;;;6302909;22;19952;-71
2023/01/11 04:08:01;;;;;;;;;;;24.20;66.70;;;;;;6278508;22;19910;-72
2023/01/11 04:10:28;;;;;;;;;;;24.10;67.10;;;;;;6305460;22;19910;-71
2023/01/11 04:12:55;;;;;;;;;;;24.20;65.90;;;;;;6305203;22;20238;-72
2023/01/11 04:15:22;;;;;;;;;;;24.20;65.10;;;;;;6305262;22;19903;-72
2023/01/11 04:17:49;;;;;;;;;;;24.20;65.10;;;;;;6305190;22;19978;-72
2023/01/11 04:20:16;;;;;;;;;;;24.20;65.00;;;;;;6304701;22;19965;-71
2023/01/11 04:22:42;;;;;;;;;;;24.20;64.90;;;;;;6304879;22;19935;-72
2023/01/11 04:25:09;;;;;;;;;;;24.20;65.10;;;;;;6305480;22;19903;-71
2023/01/11 04:27:36;;;;;;;;;;;24.10;64.20;;;;;;6304368;22;19906;-71
2023/01/11 04:30:03;;;;;;;;;;;24.10;64.90;;;;;;6305125;22;20322;-72
2023/01/11 04:32:30;;;;;;;;;;;24.20;65.60;;;;;;6304597;22;20338;-72
2023/01/11 04:34:57;;;;;;;;;;;24.20;66.10;;;;;;6128863;22;4021471;-71
2023/01/11 04:37:23;;;;;;;;;;;24.20;65.50;;;;;;6305776;22;19985;-71
2023/01/11 04:39:50;;;;;;;;;;;24.20;65.60;;;;;;6305847;22;19914;-72
2023/01/11 04:42:17;;;;;;;;;;;24.00;64.40;;;;;;6306265;22;19942;-72
2023/01/11 04:44:45;;;;;;;;;;;24.10;65.40;;;;;;6306386;22;19903;-72
2023/01/11 04:47:11;;;;;;;;;;;24.20;65.40;;;;;;6305736;22;20306;-72
2023/01/11 04:49:38;;;;;;;;;;;24.20;64.60;;;;;;6306425;22;20368;-71
2023/01/11 04:52:05;;;;;;;;;;;24.20;65.40;;;;;;6306127;22;19948;-71
2023/01/11 04:54:31;;;;;;;;;;;24.30;64.90;;;;;;6305644;22;19903;-71
2023/01/11 04:56:58;;;;;;;;;;;24.30;65.10;;;;;;6306278;22;19903;-71
2023/01/11 04:59:25;;;;;;;;;;;24.30;63.60;;;;;;6304900;22;19910;-71
2023/01/11 05:01:52;;;;;;;;;;;24.40;63.80;;;;;;6305857;22;19934;-70
2023/01/11 05:04:18;;;;;;;;;;;24.40;64.30;;;;;;6306153;22;19902;-72
2023/01/11 05:06:45;;;;;;;;;;;24.40;63.40;;;;;;6304310;22;19974;-71
2023/01/11 05:09:12;;;;;;;;;;;24.40;63.20;;;;;;6305952;22;19915;-71
2023/01/11 05:11:39;;;;;;;;;;;24.40;63.70;;;;;;6306114;22;19903;-70
2023/01/11 05:14:06;;;;;;;;;;;24.40;64.50;;;;;;6305413;22;19988;-70
2023/01/11 05:16:33;;;;;;;;;;;24.50;65.10;;;;;;6278552;22;19903;-71
2023/01/11 05:19:00;;;;;;;;;;;24.40;64.90;;;;;;6306018;22;20285;-70
2023/01/11 05:21:28;;;;;;;;;;;24.40;64.50;;;;;;6306203;22;20229;-71
2023/01/11 05:23:54;;;;;;;;;;;24.40;63.80;;;;;;6305377;22;19903;-70
2023/01/11 05:26:22;;;;;;;;;;;24.40;64.90;;;;;;6304941;22;19934;-70
2023/01/11 05:28:48;;;;;;;;;;;24.40;64.90;;;;;;6305399;22;20223;-69
2023/01/11 05:31:15;;;;;;;;;;;24.50;64.50;;;;;;6305579;22;19956;-70
2023/01/11 05:33:42;;;;;;;;;;;24.50;64.70;;;;;;6305017;22;19903;-71
2023/01/11 05:36:13;;;;;;;;;;;24.40;64.90;;;;;;6303794;22;19915;-71
2023/01/11 05:38:40;;;;;;;;;;;24.50;64.80;;;;;;6305806;22;19941;-69
2023/01/11 05:41:07;;;;;;;;;;;24.40;64.40;;;;;;6305711;22;19903;-70
2023/01/11 05:45:27;;;;;;;;;;;24.50;63.70;;;;;;6305519;22;19903;-70
2023/01/11 05:46:21;;;;;;;;;;;24.40;63.50;;;;;;6305928;22;19965;-70
2023/01/11 05:48:47;;;;;;;;;;;24.50;63.40;;;;;;6305965;22;19903;-70
2023/01/11 05:51:14;;;;;;;;;;;24.50;63.80;;;;;;6305909;22;19907;-69
2023/01/11 05:53:41;;;;;;;;;;;24.50;63.30;;;;;;6307548;22;19939;-69
2023/01/11 05:56:08;;;;;;;;;;;24.40;63.70;;;;;;6308162;22;20367;-69
2023/01/11 05:58:34;;;;;;;;;;;24.40;64.10;;;;;;6308450;22;19919;-69
2023/01/11 06:01:01;;;;;;;;;;;24.40;64.50;;;;;;6307819;22;19918;-69
2023/01/11 06:03:28;;;;;;;;;;;24.40;64.20;;;;;;6307827;22;19907;-69
2023/01/11 07:22:44;;;;;;;;;;;23.90;72.10;;;;;;6305595;22;19926;-71
2023/01/11 07:25:10;;;;;;;;;;;23.80;72.10;;;;;;6305535;22;20333;-71
2023/01/11 07:27:37;;;;;;;;;;;23.80;72.50;;;;;;6305850;22;19913;-71
2023/01/11 07:30:04;;;;;;;;;;;23.80;72.40;;;;;;6306258;22;20309;-71
2023/01/11 07:32:31;;;;;;;;;;;23.80;72.90;;;;;;6307466;22;20383;-71
2023/01/11 07:34:57;;;;;;;;;;;23.70;72.80;;;;;;6307712;22;19903;-71
2023/01/11 07:37:24;;;;;;;;;;;23.70;73.10;;;;;;6307295;22;20314;-71
2023/01/11 07:39:51;;;;;;;;;;;23.70;73.00;;;;;;6307435;22;19911;-71
2023/01/11 07:45:03;;;;;;;;;;;23.60;73.90;;;;;;6307594;22;19953;-71
2023/01/11 07:47:30;;;;;;;;;;;23.60;73.70;;;;;;6307456;22;19910;-70
2023/01/11 07:49:56;;;;;;;;;;;23.60;73.60;;;;;;6307287;22;19903;-70
2023/01/11 07:52:23;;;;;;;;;;;23.50;72.70;;;;;;6307773;22;19902;-70
2023/01/11 07:54:50;;;;;;;;;;;23.50;72.70;;;;;;6307283;22;19933;-71
2023/01/11 07:57:16;;;;;;;;;;;23.50;72.90;;;;;;6307199;22;19935;-70
2023/01/11 07:59:43;;;;;;;;;;;23.40;71.90;;;;;;6306923;22;19911;-70
2023/01/11 08:02:10;;;;;;;;;;;23.40;71.40;;;;;;6307055;22;20674;-71
2023/01/11 08:04:37;;;;;;;;;;;23.40;71.00;;;;;;6307057;22;20241;-71
2023/01/11 08:07:04;;;;;;;;;;;23.30;71.40;;;;;;6306902;22;19907;-71
2023/01/11 08:09:30;;;;;;;;;;;23.30;70.60;;;;;;6307998;22;19903;-71
2023/01/11 08:14:42;;;;;;;;;;;23.30;70.90;;;;;;6307670;22;20277;-70
2023/01/11 08:17:10;;;;;;;;;;;23.30;71.10;;;;;;6307505;22;19981;-70
2023/01/11 08:19:37;;;;;;;;;;;23.30;70.90;;;;;;6279838;22;19945;-70
2023/01/11 20:56:46;;;;;;;;;;;21.90;79.60;;;;;;6300550;22;19938;-71
2023/01/11 20:59:13;;;;;;;;;;;21.90;79.50;;;;;;6306065;22;20368;-70
2023/01/11 21:01:39;;;;;;;;;;;21.90;79.60;;;;;;6306489;22;19957;-71
2023/01/11 21:04:06;;;;;;;;;;;22.00;79.40;;;;;;6304637;22;19914;-71
2023/01/11 21:06:34;;;;;;;;;;;22.00;79.50;;;;;;6307264;22;19915;-71
2023/01/11 21:09:00;;;;;;;;;;;22.00;79.60;;;;;;6306322;22;19949;-71
2023/01/11 21:11:27;;;;;;;;;;;21.90;79.80;;;;;;6306615;22;19903;-71
2023/01/11 21:13:54;;;;;;;;;;;22.00;79.70;;;;;;6306383;22;19903;-71
2023/01/11 21:16:26;;;;;;;;;;;22.00;79.60;;;;;;6306113;22;19956;-71
2023/01/11 21:18:56;;;;;;;;;;;22.00;79.70;;;;;;6279977;22;19911;-71
2023/01/11 21:21:23;;;;;;;;;;;22.00;79.80;;;;;;6306058;22;20314;-71
2023/01/11 21:23:52;;;;;;;;;;;22.10;80.10;;;;;;6306029;22;19907;-71
2023/01/11 21:26:19;;;;;;;;;;;22.10;80.10;;;;;;6306461;22;19911;-71
2023/01/11 21:28:49;;;;;;;;;;;22.10;79.90;;;;;;6306727;22;20219;-71
2023/01/11 21:31:16;;;;;;;;;;;22.10;79.60;;;;;;6306416;22;19903;-71
2023/01/11 21:33:43;;;;;;;;;;;22.20;79.60;;;;;;6306162;22;20112;-71
2023/01/11 21:36:10;;;;;;;;;;;22.20;79.60;;;;;;6306186;22;19925;-71
2023/01/11 21:38:37;;;;;;;;;;;22.20;79.00;;;;;;6306434;22;19949;-71
2023/01/11 21:41:07;;;;;;;;;;;22.20;79.20;;;;;;6306187;22;19929;-71
2023/01/11 21:43:34;;;;;;;;;;;22.30;78.80;;;;;;6306547;22;19907;-71
2023/01/11 21:46:01;;;;;;;;;;;22.30;78.80;;;;;;6306654;22;19903;-71
2023/01/11 21:48:28;;;;;;;;;;;22.30;78.90;;;;;;6306627;22;20326;-71
2023/01/11 21:50:54;;;;;;;;;;;22.30;78.90;;;;;;6306129;22;19981;-71
2023/01/11 21:53:21;;;;;;;;;;;22.40;78.90;;;;;;6306217;22;19903;-71
2023/01/11 21:55:48;;;;;;;;;;;22.40;78.90;;;;;;6306375;22;20073;-71
2023/01/11 21:58:15;;;;;;;;;;;22.50;78.90;;;;;;6306195;22;19984;-71
2023/01/11 22:00:42;;;;;;;;;;;22.50;78.50;;;;;;6306364;22;19957;-71
2023/01/11 22:03:09;;;;;;;;;;;22.60;78.30;;;;;;6306044;22;19903;-71
2023/01/11 22:05:35;;;;;;;;;;;22.60;78.20;;;;;;6306602;22;19903;-71
2023/01/11 22:08:02;;;;;;;;;;;22.60;76.90;;;;;;6306386;22;19910;-71
2023/01/11 22:10:29;;;;;;;;;;;22.60;77.30;;;;;;6279134;22;19926;-71
2023/01/11 22:12:55;;;;;;;;;;;22.70;76.90;;;;;;6306538;22;20262;-71
2023/01/11 22:15:22;;;;;;;;;;;22.70;76.10;;;;;;6279199;22;19903;-71
2023/01/11 22:17:48;;;;;;;;;;;22.70;76.10;;;;;;6306840;22;20020;-71
2023/01/11 22:20:16;;;;;;;;;;;22.70;74.40;;;;;;6305763;22;19911;-71
2023/01/11 22:22:43;;;;;;;;;;;22.80;74.80;;;;;;6279402;22;20234;-71
2023/01/11 22:25:09;;;;;;;;;;;22.80;74.40;;;;;;6306393;22;19907;-71
2023/01/11 22:27:36;;;;;;;;;;;22.80;74.00;;;;;;6306071;22;19970;-71
2023/01/11 22:30:03;;;;;;;;;;;22.80;74.50;;;;;;6306217;22;19910;-71
2023/01/11 22:32:30;;;;;;;;;;;22.80;74.30;;;;;;6306023;22;19914;-71
2023/01/11 22:34:56;;;;;;;;;;;22.80;73.40;;;;;;6307259;22;19910;-71
2023/01/11 22:37:23;;;;;;;;;;;22.80;73.50;;;;;;6308038;22;20233;-71
2023/01/11 22:39:49;;;;;;;;;;;22.80;74.00;;;;;;6307745;22;19914;-71
2023/01/11 22:42:16;;;;;;;;;;;22.80;73.40;;;;;;6308024;22;19957;-71
2023/01/11 22:44:43;;;;;;;;;;;22.80;73.40;;;;;;6308116;22;19956;-71
2023/01/11 22:47:09;;;;;;;;;;;22.80;73.30;;;;;;6307915;22;20291;-71
2023/01/11 22:49:36;;;;;;;;;;;22.90;73.50;;;;;;6308235;22;19934;-71
2023/01/11 22:52:02;;;;;;;;;;;22.90;73.70;;;;;;6308221;22;19911;-71
2023/01/11 22:54:29;;;;;;;;;;;22.90;73.00;;;;;;6307682;22;19982;-71
2023/01/11 22:56:57;;;;;;;;;;;22.90;73.20;;;;;;6307525;22;19915;-71
2023/01/11 22:59:24;;;;;;;;;;;22.90;73.30;;;;;;6307363;22;20318;-71
2023/01/11 23:01:51;;;;;;;;;;;22.90;73.40;;;;;;6280615;22;19910;-71
2023/01/11 23:04:17;;;;;;;;;;;23.00;73.10;;;;;;6308095;22;19981;-70
2023/01/11 23:06:44;;;;;;;;;;;23.00;74.00;;;;;;6307624;22;19914;-71
2023/01/11 23:09:13;;;;;;;;;;;23.00;73.30;;;;;;6307916;22;19964;-71
2023/01/11 23:14:27;;;;;;;;;;;23.10;73.70;;;;;;6307901;22;19910;-71
2023/01/11 23:16:54;;;;;;;;;;;23.10;73.40;;;;;;6307619;22;19907;-71
2023/01/11 23:19:20;;;;;;;;;;;23.20;73.30;;;;;;6307709;22;19915;-71
2023/01/11 23:21:47;;;;;;;;;;;23.20;74.30;;;;;;6307565;22;19937;-71
2023/01/11 23:24:14;;;;;;;;;;;23.20;74.30;;;;;;6307738;22;19903;-71
2023/01/11 23:26:40;;;;;;;;;;;23.30;74.60;;;;;;6307454;22;19926;-71
2023/01/11 23:29:07;;;;;;;;;;;23.30;73.70;;;;;;6307341;22;20326;-71
2023/01/11 23:31:34;;;;;;;;;;;23.30;74.30;;;;;;6306911;22;19931;-71
2023/01/11 23:34:01;;;;;;;;;;;23.30;73.00;;;;;;6307358;22;19982;-71
2023/01/11 23:36:31;;;;;;;;;;;23.30;72.50;;;;;;6307605;22;20280;-71
2023/01/11 23:38:57;;;;;;;;;;;23.30;72.70;;;;;;6307268;22;20277;-71
2023/01/11 23:44:10;;;;;;;;;;;23.40;73.70;;;;;;6307676;22;19914;-71
2023/01/11 23:49:23;;;;;;;;;;;23.50;74.70;;;;;;6284772;22;20253;-71
2023/01/11 23:51:50;;;;;;;;;;;23.50;74.80;;;;;;6307270;22;19907;-70
2023/01/11 23:54:16;;;;;;;;;;;23.50;73.10;;;;;;6307320;22;19941;-71
2023/01/11 23:56:43;;;;;;;;;;;23.50;73.80;;;;;;6307409;22;19915;-71
2023/01/11 23:59:10;;;;;;;;;;;23.50;74.20;;;;;;6306883;22;19946;-71
